Time;durP1;ratioP1;P1;durP2;ratioP2;P2;SDS_P1;SDS_P2;PMS_P1;PMS_P2;Temp;Humidity;BMP_temperature;BMP_pressure;BME280_temperature;BME280_humidity;BME280_pressure;Samples;Min_cycle;Max_cycle;Signal;HPM_P1;HPM_P2
2023/06/07 00:02:02;;;;;;;11.38;5.03;;;12.20;99.90;;;;;;5052821;28;20085;-62
2023/06/07 00:04:30;;;;;;;16.65;5.13;;;12.20;99.90;;;;;;5082612;28;20036;-62
2023/06/07 00:07:00;;;;;;;14.40;5.15;;;12.20;99.90;;;;;;5084826;28;20040;-62
2023/06/07 00:09:30;;;;;;;19.08;5.20;;;12.20;99.90;;;;;;5076792;28;20054;-63
2023/06/07 00:11:56;;;;;;;10.85;4.30;;;12.20;99.90;;;;;;5083404;28;20146;-62
2023/06/07 00:14:23;;;;;;;15.57;5.18;;;12.10;99.90;;;;;;5080965;28;20139;-62
2023/06/07 00:16:52;;;;;;;17.10;5.40;;;12.10;99.90;;;;;;5066090;28;20036;-62
2023/06/07 00:19:21;;;;;;;14.90;5.00;;;12.10;99.90;;;;;;5065638;28;20036;-63
2023/06/07 00:21:51;;;;;;;15.82;4.68;;;12.20;99.90;;;;;;5066816;28;20040;-63
2023/06/07 00:24:17;;;;;;;15.13;5.63;;;12.20;99.90;;;;;;5066314;28;20055;-62
2023/06/07 00:26:44;;;;;;;15.15;4.75;;;12.10;99.90;;;;;;5095826;22;20040;-60
2023/06/07 00:29:10;;;;;;;12.40;4.63;;;12.10;99.90;;;;;;5050834;28;20040;-59
2023/06/07 00:31:36;;;;;;;12.40;4.32;;;12.10;99.90;;;;;;5062530;28;20044;-59
2023/06/07 00:34:03;;;;;;;10.05;3.75;;;12.10;99.90;;;;;;5037689;28;20051;-60
2023/06/07 00:36:29;;;;;;;10.50;3.85;;;12.10;99.90;;;;;;5053425;28;20578;-60
2023/06/07 00:38:55;;;;;;;19.67;4.70;;;12.10;99.90;;;;;;5058345;28;20116;-60
2023/06/07 00:41:21;;;;;;;13.18;3.67;;;12.20;99.90;;;;;;5069526;28;20076;-60
2023/06/07 00:43:48;;;;;;;10.70;4.45;;;12.20;99.90;;;;;;5062263;28;20491;-59
2023/06/07 00:46:19;;;;;;;13.10;5.40;;;12.20;99.90;;;;;;5066211;28;20127;-60
2023/06/07 00:48:46;;;;;;;12.35;4.47;;;12.20;99.90;;;;;;5053496;28;20053;-60
2023/06/07 00:51:12;;;;;;;10.60;3.95;;;12.10;99.90;;;;;;5061607;28;20080;-59
2023/06/07 00:53:39;;;;;;;12.52;4.32;;;12.10;99.90;;;;;;5069820;28;20098;-60
2023/06/07 00:56:06;;;;;;;12.13;4.20;;;12.10;99.90;;;;;;5071495;28;20072;-60
2023/06/07 00:58:38;;;;;;;13.75;3.88;;;12.10;99.90;;;;;;5050707;28;20044;-60
2023/06/07 01:01:04;;;;;;;12.60;3.72;;;12.10;99.90;;;;;;5047228;28;20044;-60
2023/06/07 01:03:30;;;;;;;8.60;3.78;;;12.10;99.90;;;;;;5088420;28;20041;-60
2023/06/07 01:05:58;;;;;;;12.98;4.63;;;12.10;99.90;;;;;;5071057;28;20097;-61
2023/06/07 01:08:25;;;;;;;13.77;4.30;;;12.10;99.90;;;;;;5069998;28;20045;-60
2023/06/07 01:10:52;;;;;;;12.35;4.20;;;12.00;99.90;;;;;;5047645;28;20587;-60
2023/06/07 01:13:18;;;;;;;13.93;3.97;;;12.00;99.90;;;;;;5069419;28;20056;-59
2023/06/07 01:15:44;;;;;;;10.68;4.22;;;12.00;99.90;;;;;;5066414;28;20499;-59
2023/06/07 01:18:11;;;;;;;11.40;3.30;;;12.00;99.90;;;;;;5066807;28;20135;-59
2023/06/07 01:20:39;;;;;;;10.02;4.07;;;12.00;99.90;;;;;;5064442;28;20045;-60
2023/06/07 01:23:08;;;;;;;13.48;4.60;;;12.00;99.90;;;;;;5067382;28;20068;-59
2023/06/07 01:25:35;;;;;;;14.43;4.53;;;12.00;99.90;;;;;;5065491;28;20040;-59
2023/06/07 01:28:01;;;;;;;14.07;4.18;;;12.00;99.90;;;;;;5068920;28;20050;-59
2023/06/07 01:30:31;;;;;;;12.07;4.63;;;12.00;99.90;;;;;;5047257;28;20494;-60
2023/06/07 01:32:58;;;;;;;10.68;3.75;;;12.00;99.90;;;;;;5043436;28;20368;-60
2023/06/07 01:35:25;;;;;;;15.85;4.85;;;12.00;99.90;;;;;;5066188;28;20045;-60
2023/06/07 01:37:51;;;;;;;16.38;4.82;;;12.00;99.90;;;;;;5067995;28;20041;-61
2023/06/07 01:40:18;;;;;;;12.15;4.07;;;12.00;99.90;;;;;;5070716;28;20032;-60
2023/06/07 01:42:46;;;;;;;12.35;4.07;;;12.00;99.90;;;;;;5052365;28;20567;-61
2023/06/07 01:45:12;;;;;;;11.90;4.32;;;12.00;99.90;;;;;;5062991;28;20059;-60
2023/06/07 01:47:39;;;;;;;27.80;5.47;;;12.00;99.90;;;;;;5067843;28;20086;-60
2023/06/07 01:50:06;;;;;;;9.30;4.13;;;12.00;99.90;;;;;;5077177;28;20071;-61
2023/06/07 01:52:32;;;;;;;24.13;4.82;;;12.00;99.90;;;;;;5067091;28;20052;-60
2023/06/07 01:54:58;;;;;;;12.80;4.22;;;12.10;99.90;;;;;;5068772;28;20036;-60
2023/06/07 01:57:40;;;;;;;13.15;4.65;;;12.10;99.90;;;;;;5066403;28;20479;-61
2023/06/07 02:00:21;;;;;;;16.65;4.07;;;12.10;99.90;;;;;;5068513;28;20147;-61
2023/06/07 02:02:56;;;;;;;14.98;4.32;;;12.10;99.90;;;;;;5060496;28;20044;-61
2023/06/07 02:05:37;;;;;;;13.18;3.92;;;12.10;99.90;;;;;;5050303;28;20086;-61
2023/06/07 02:08:13;;;;;;;16.67;4.97;;;12.10;99.90;;;;;;5068512;28;20051;-61
2023/06/07 02:10:42;;;;;;;11.80;4.47;;;12.10;99.90;;;;;;5058535;28;20112;-61
2023/06/07 02:13:08;;;;;;;15.35;5.18;;;12.00;99.90;;;;;;5065272;28;20453;-61
2023/06/07 02:15:34;;;;;;;13.18;4.35;;;12.00;99.90;;;;;;5065783;28;20147;-61
2023/06/07 02:18:01;;;;;;;15.05;4.47;;;12.00;99.90;;;;;;5062091;28;20103;-61
2023/06/07 02:20:33;;;;;;;16.00;4.13;;;12.10;99.90;;;;;;5070061;28;20043;-61
2023/06/07 02:22:59;;;;;;;14.82;4.15;;;12.10;99.90;;;;;;5067408;28;20108;-60
2023/06/07 02:25:46;;;;;;;11.48;4.20;;;12.10;99.90;;;;;;5064551;28;20110;-61
2023/06/07 02:28:18;;;;;;;13.32;4.40;;;12.00;99.90;;;;;;5063791;28;20372;-61
2023/06/07 02:30:44;;;;;;;9.52;3.50;;;12.10;99.90;;;;;;5066930;28;20131;-61
2023/06/07 02:33:13;;;;;;;15.38;4.25;;;12.10;99.90;;;;;;5068524;28;20090;-61
2023/06/07 02:35:45;;;;;;;14.00;4.22;;;12.10;99.90;;;;;;5066855;28;20066;-60
2023/06/07 02:38:11;;;;;;;12.50;4.32;;;12.10;99.90;;;;;;5070390;28;20103;-61
2023/06/07 02:40:37;;;;;;;11.52;3.35;;;12.10;99.90;;;;;;5053874;28;20032;-61
2023/06/07 02:43:03;;;;;;;13.73;3.60;;;12.10;99.90;;;;;;5060430;28;20044;-60
2023/06/07 02:45:28;;;;;;;12.23;3.88;;;12.10;99.90;;;;;;5053169;28;20550;-59
2023/06/07 02:47:54;;;;;;;13.73;4.70;;;12.10;99.90;;;;;;5069900;28;20461;-60
2023/06/07 02:50:23;;;;;;;11.98;3.80;;;12.10;99.90;;;;;;5069347;28;20118;-61
2023/06/07 02:52:49;;;;;;;13.38;4.63;;;12.10;99.90;;;;;;5066497;28;20036;-59
2023/06/07 02:55:14;;;;;;;11.75;3.55;;;12.20;99.90;;;;;;5051551;28;20037;-61
2023/06/07 02:57:41;;;;;;;13.18;3.90;;;12.20;99.90;;;;;;5064652;28;20033;-60
2023/06/07 03:00:10;;;;;;;11.18;3.50;;;12.20;99.90;;;;;;5067571;28;20044;-59
2023/06/07 03:02:37;;;;;;;11.48;4.03;;;12.20;99.90;;;;;;5067808;28;20043;-61
2023/06/07 03:05:03;;;;;;;13.35;3.80;;;12.20;99.90;;;;;;5051232;28;20044;-61
2023/06/07 03:07:29;;;;;;;14.57;4.10;;;12.20;99.90;;;;;;5050489;28;20399;-60
2023/06/07 03:09:55;;;;;;;11.48;3.45;;;12.20;99.90;;;;;;5069032;28;20301;-61
2023/06/07 03:12:20;;;;;;;14.82;3.65;;;12.20;99.90;;;;;;5068502;28;20036;-61
2023/06/07 03:14:46;;;;;;;10.88;3.35;;;12.20;99.90;;;;;;5046635;28;20119;-61
2023/06/07 03:17:12;;;;;;;14.95;3.85;;;12.20;99.90;;;;;;5046909;28;20395;-60
2023/06/07 03:19:38;;;;;;;11.60;3.85;;;12.20;99.90;;;;;;5067768;28;20120;-61
2023/06/07 03:22:06;;;;;;;15.32;4.03;;;12.20;99.90;;;;;;5052673;28;20314;-61
2023/06/07 03:24:33;;;;;;;12.40;3.83;;;12.20;99.90;;;;;;5065385;28;20052;-61
2023/06/07 03:26:59;;;;;;;10.55;3.70;;;12.20;99.90;;;;;;5064236;28;20048;-60
2023/06/07 03:29:26;;;;;;;17.52;4.45;;;12.30;99.90;;;;;;5069474;28;20115;-61
2023/06/07 03:31:52;;;;;;;12.95;4.50;;;12.30;99.90;;;;;;5062301;28;20036;-61
2023/06/07 03:34:18;;;;;;;11.82;3.42;;;12.30;99.90;;;;;;5068698;28;20355;-60
2023/06/07 03:36:44;;;;;;;13.80;4.43;;;12.30;99.90;;;;;;5065761;28;20479;-61
2023/06/07 03:39:10;;;;;;;12.43;3.55;;;12.30;99.90;;;;;;5061184;28;20029;-61
2023/06/07 03:41:36;;;;;;;13.82;4.43;;;12.30;99.90;;;;;;5065174;28;20036;-61
2023/06/07 03:44:01;;;;;;;14.02;4.30;;;12.30;99.90;;;;;;5066909;28;20059;-59
2023/06/07 03:46:28;;;;;;;22.95;4.50;;;12.30;99.90;;;;;;5067072;28;20119;-60
2023/06/07 03:48:53;;;;;;;14.50;3.45;;;12.30;99.90;;;;;;5073887;28;20178;-60
2023/06/07 03:51:20;;;;;;;13.38;3.58;;;12.30;99.90;;;;;;5068460;28;20103;-61
2023/06/07 03:53:46;;;;;;;11.98;3.63;;;12.20;99.90;;;;;;5045025;28;20055;-61
2023/06/07 03:56:11;;;;;;;13.68;3.53;;;12.30;99.90;;;;;;5048606;28;20048;-61
2023/06/07 03:58:37;;;;;;;9.32;3.40;;;12.30;99.90;;;;;;5060656;28;20033;-62
2023/06/07 04:01:03;;;;;;;10.30;3.72;;;12.30;99.90;;;;;;5066661;28;20072;-62
2023/06/07 04:03:30;;;;;;;11.10;3.50;;;12.30;99.90;;;;;;5061797;28;20407;-61
2023/06/07 04:05:56;;;;;;;8.63;3.50;;;12.30;99.90;;;;;;5062909;28;20051;-61
2023/06/07 04:08:22;;;;;;;12.00;3.75;;;12.30;99.90;;;;;;5062520;28;20076;-61
2023/06/07 04:10:49;;;;;;;11.48;3.70;;;12.30;99.90;;;;;;5047467;28;20068;-61
2023/06/07 04:13:14;;;;;;;13.82;3.70;;;12.30;99.90;;;;;;5061040;28;20527;-61
2023/06/07 04:15:40;;;;;;;13.25;3.60;;;12.40;99.90;;;;;;5055362;28;20128;-61
2023/06/07 04:18:06;;;;;;;12.88;4.38;;;12.40;99.90;;;;;;5063279;28;20051;-61
2023/06/07 04:20:32;;;;;;;13.50;3.63;;;12.40;99.90;;;;;;5066093;28;20075;-60
2023/06/07 04:22:57;;;;;;;9.80;3.47;;;12.40;99.90;;;;;;5050545;28;20110;-60
2023/06/07 04:25:33;;;;;;;9.75;3.20;;;12.50;99.90;;;;;;5067613;28;20076;-61
2023/06/07 04:28:03;;;;;;;12.52;3.42;;;12.50;99.90;;;;;;5072502;28;20127;-60
2023/06/07 04:30:34;;;;;;;15.52;4.15;;;12.50;99.90;;;;;;5056925;28;20040;-60
2023/06/07 04:33:10;;;;;;;12.02;3.58;;;12.50;99.90;;;;;;5064748;28;20111;-61
2023/06/07 04:35:42;;;;;;;7.45;3.30;;;12.50;99.90;;;;;;5065684;28;20123;-61
2023/06/07 04:38:15;;;;;;;11.65;4.05;;;12.50;99.90;;;;;;5064633;28;20048;-61
2023/06/07 04:40:42;;;;;;;12.07;5.10;;;12.50;99.90;;;;;;5062257;28;20063;-62
2023/06/07 04:43:12;;;;;;;14.50;4.72;;;12.50;99.90;;;;;;5057964;28;20044;-61
2023/06/07 04:45:41;;;;;;;12.45;3.75;;;12.50;99.90;;;;;;5067221;28;20044;-61
2023/06/07 04:48:07;;;;;;;15.30;3.83;;;12.40;99.90;;;;;;5062792;28;20115;-58
2023/06/07 04:50:34;;;;;;;13.90;4.57;;;12.50;99.90;;;;;;5063040;28;20423;-61
2023/06/07 04:53:03;;;;;;;11.02;4.05;;;12.50;99.90;;;;;;5064640;28;20048;-62
2023/06/07 04:55:34;;;;;;;12.52;4.25;;;12.40;99.90;;;;;;5067205;28;20045;-61
2023/06/07 04:58:04;;;;;;;14.60;4.38;;;12.50;99.90;;;;;;5067126;28;20094;-61
2023/06/07 05:00:33;;;;;;;13.13;3.70;;;12.50;99.90;;;;;;5055826;28;20086;-61
2023/06/07 05:03:08;;;;;;;11.25;3.55;;;12.60;99.90;;;;;;5066464;28;20184;-61
2023/06/07 05:05:34;;;;;;;17.80;3.60;;;12.60;99.90;;;;;;5062835;28;20044;-61
2023/06/07 05:08:00;;;;;;;10.48;3.42;;;12.70;99.90;;;;;;5064737;28;20041;-61
2023/06/07 05:10:26;;;;;;;12.68;3.60;;;12.70;99.90;;;;;;5066901;28;20399;-61
2023/06/07 05:12:52;;;;;;;12.57;3.28;;;12.70;99.90;;;;;;5067208;28;20033;-60
2023/06/07 05:15:18;;;;;;;8.00;3.53;;;12.70;99.90;;;;;;5074898;28;20245;-60
2023/06/07 05:17:45;;;;;;;12.55;3.17;;;12.70;99.90;;;;;;5050404;28;20063;-61
2023/06/07 05:20:11;;;;;;;11.48;3.28;;;12.80;99.90;;;;;;5063863;28;20132;-61
2023/06/07 05:22:39;;;;;;;8.93;3.25;;;12.80;99.90;;;;;;5052344;28;20051;-61
2023/06/07 05:25:06;;;;;;;13.13;3.53;;;12.80;99.90;;;;;;5064809;28;20059;-60
2023/06/07 05:27:32;;;;;;;12.23;3.47;;;12.80;99.90;;;;;;5065501;28;20090;-61
2023/06/07 05:29:58;;;;;;;8.07;2.80;;;12.90;99.90;;;;;;5066826;28;20517;-61
2023/06/07 05:32:24;;;;;;;13.93;3.95;;;12.80;99.90;;;;;;5068204;28;20058;-61
2023/06/07 05:34:51;;;;;;;12.38;3.33;;;12.90;99.90;;;;;;5069654;28;20066;-61
2023/06/07 05:37:18;;;;;;;7.38;2.90;;;12.90;99.90;;;;;;5065532;28;20063;-59
2023/06/07 05:39:46;;;;;;;17.73;3.92;;;12.90;99.90;;;;;;5066887;28;20032;-60
2023/06/07 05:42:12;;;;;;;8.77;3.03;;;13.00;99.90;;;;;;5070390;28;20119;-59
2023/06/07 05:44:38;;;;;;;12.27;3.22;;;13.10;99.90;;;;;;5084939;28;20049;-61
2023/06/07 05:47:04;;;;;;;11.23;3.28;;;13.10;99.90;;;;;;5064190;28;20052;-61
2023/06/07 05:49:31;;;;;;;13.88;3.25;;;13.20;99.90;;;;;;5064448;28;20052;-61
2023/06/07 05:51:57;;;;;;;11.05;3.30;;;13.20;99.90;;;;;;5067913;28;20055;-61
2023/06/07 05:54:23;;;;;;;12.23;3.50;;;13.20;99.90;;;;;;5067914;28;20072;-61
2023/06/07 05:56:49;;;;;;;9.68;2.90;;;13.20;99.90;;;;;;5052419;28;20032;-61
2023/06/07 05:59:15;;;;;;;7.30;2.78;;;13.20;99.90;;;;;;5045902;28;20086;-61
2023/06/07 06:01:44;;;;;;;10.38;2.97;;;13.30;99.90;;;;;;5066933;28;20041;-61
2023/06/07 06:04:10;;;;;;;12.20;3.42;;;13.30;99.90;;;;;;5066315;28;20040;-61
2023/06/07 06:06:38;;;;;;;11.88;3.40;;;13.30;99.90;;;;;;5067712;28;20441;-60
2023/06/07 06:09:07;;;;;;;12.02;3.00;;;13.40;99.90;;;;;;5071477;28;20562;-61
2023/06/07 06:11:33;;;;;;;17.20;3.70;;;13.50;99.90;;;;;;5068741;28;20043;-65
2023/06/07 06:13:58;;;;;;;15.57;4.13;;;13.40;99.90;;;;;;5071245;28;20041;-60
2023/06/07 06:16:24;;;;;;;13.30;3.40;;;13.50;99.90;;;;;;5046508;28;20712;-62
2023/06/07 06:18:50;;;;;;;10.52;3.15;;;13.60;99.90;;;;;;5062533;28;20033;-63
2023/06/07 06:21:16;;;;;;;10.25;2.83;;;13.70;99.90;;;;;;5060546;28;20036;-61
2023/06/07 06:23:42;;;;;;;11.98;3.40;;;13.70;99.90;;;;;;5050450;28;20044;-64
2023/06/07 06:26:07;;;;;;;7.78;3.08;;;13.80;99.90;;;;;;5068504;28;20052;-64
2023/06/07 06:28:33;;;;;;;9.27;3.28;;;13.90;99.90;;;;;;5051425;28;20175;-63
2023/06/07 06:31:01;;;;;;;13.48;4.15;;;13.90;99.90;;;;;;5056978;28;20403;-63
2023/06/07 06:33:27;;;;;;;7.40;2.97;;;13.90;99.90;;;;;;5047631;22;20091;-57
2023/06/07 06:35:53;;;;;;;12.73;3.30;;;13.80;99.90;;;;;;5046480;28;20079;-57
2023/06/07 06:38:19;;;;;;;9.68;3.35;;;13.80;99.90;;;;;;5032520;28;20039;-58
2023/06/07 06:40:45;;;;;;;11.50;3.13;;;13.90;99.90;;;;;;5037985;28;20036;-58
2023/06/07 06:43:12;;;;;;;9.88;3.28;;;13.90;99.90;;;;;;5045493;28;20040;-58
2023/06/07 06:45:38;;;;;;;12.27;3.22;;;13.90;99.90;;;;;;5045050;23;20036;-62
2023/06/07 06:48:05;;;;;;;15.15;3.53;;;14.00;99.90;;;;;;5065058;28;20145;-62
2023/06/07 06:50:31;;;;;;;14.07;3.92;;;14.00;99.90;;;;;;5057901;28;20040;-62
2023/06/07 06:52:57;;;;;;;10.75;3.33;;;14.10;99.90;;;;;;5076069;28;20075;-62
2023/06/07 06:55:23;;;;;;;9.40;3.00;;;14.20;99.90;;;;;;5043043;28;20145;-61
2023/06/07 06:57:49;;;;;;;11.45;3.92;;;14.20;99.90;;;;;;5083919;28;20075;-62
2023/06/07 07:00:15;;;;;;;11.65;3.10;;;14.30;99.90;;;;;;5077868;28;20042;-61
2023/06/07 07:02:41;;;;;;;9.93;3.22;;;14.40;99.90;;;;;;5065579;28;20395;-62
2023/06/07 07:05:07;;;;;;;12.23;3.30;;;14.40;99.90;;;;;;5066590;28;20122;-62
2023/06/07 07:07:33;;;;;;;11.35;3.53;;;14.40;99.90;;;;;;5075042;28;20042;-62
2023/06/07 07:10:00;;;;;;;11.25;3.17;;;14.40;99.90;;;;;;5070741;28;20036;-62
2023/06/07 07:12:26;;;;;;;11.55;3.58;;;14.50;99.90;;;;;;5061994;28;20043;-61
2023/06/07 07:14:52;;;;;;;12.82;4.18;;;14.50;99.90;;;;;;5065980;28;20494;-61
2023/06/07 07:17:17;;;;;;;10.77;3.60;;;14.60;99.90;;;;;;5080801;28;20032;-61
2023/06/07 07:19:43;;;;;;;12.98;3.42;;;14.60;99.90;;;;;;5049788;28;20041;-62
2023/06/07 07:22:09;;;;;;;14.90;3.35;;;14.70;99.90;;;;;;5080522;28;20037;-62
2023/06/07 07:24:35;;;;;;;11.95;3.80;;;14.70;99.90;;;;;;5071050;28;20051;-62
2023/06/07 07:27:01;;;;;;;8.35;3.03;;;14.90;99.90;;;;;;5061167;28;20513;-62
2023/06/07 07:29:27;;;;;;;12.45;3.50;;;14.90;99.90;;;;;;5085933;28;20032;-62
2023/06/07 07:31:53;;;;;;;8.90;3.58;;;15.00;99.90;;;;;;5088785;28;20102;-62
2023/06/07 07:34:18;;;;;;;12.82;4.15;;;15.20;99.90;;;;;;5086745;28;20483;-62
2023/06/07 07:36:44;;;;;;;13.38;3.17;;;15.20;99.90;;;;;;5067341;28;20089;-62
2023/06/07 07:39:11;;;;;;;11.20;2.95;;;15.30;99.90;;;;;;5078584;28;20139;-62
2023/06/07 07:41:37;;;;;;;15.63;3.67;;;15.30;99.90;;;;;;5079747;28;20479;-62
2023/06/07 07:44:04;;;;;;;10.32;3.22;;;15.30;99.90;;;;;;5050269;28;20069;-62
2023/06/07 07:46:30;;;;;;;10.98;3.63;;;15.30;99.90;;;;;;5067226;28;20074;-62
2023/06/07 07:48:56;;;;;;;19.15;3.90;;;15.30;99.90;;;;;;5088364;28;20035;-62
2023/06/07 07:51:21;;;;;;;8.57;3.30;;;15.30;99.90;;;;;;5089502;28;20093;-61
2023/06/07 07:53:47;;;;;;;13.00;3.50;;;15.30;99.90;;;;;;5055344;28;20374;-62
2023/06/07 07:56:13;;;;;;;10.60;3.35;;;15.30;99.90;;;;;;5080531;28;20505;-61
2023/06/07 07:58:40;;;;;;;12.20;3.25;;;15.40;99.90;;;;;;5076215;28;20411;-62
2023/06/07 08:01:08;;;;;;;10.85;3.58;;;15.50;99.90;;;;;;5068420;28;20102;-62
2023/06/07 08:03:34;;;;;;;7.85;2.88;;;15.40;99.90;;;;;;5081611;28;20482;-62
2023/06/07 08:06:01;;;;;;;8.90;3.85;;;15.40;99.90;;;;;;5055748;28;20071;-62
2023/06/07 08:08:27;;;;;;;15.80;3.72;;;15.40;99.90;;;;;;5071787;28;20046;-61
2023/06/07 08:10:53;;;;;;;12.57;3.80;;;15.50;99.90;;;;;;5093983;28;20355;-62
2023/06/07 08:13:19;;;;;;;16.42;3.75;;;15.60;99.90;;;;;;5063667;28;20044;-61
2023/06/07 08:15:46;;;;;;;9.95;3.45;;;15.70;99.90;;;;;;5080360;28;20044;-62
2023/06/07 08:18:12;;;;;;;10.07;3.03;;;15.80;99.90;;;;;;5080413;28;20040;-62
2023/06/07 08:20:38;;;;;;;11.13;4.10;;;15.90;99.90;;;;;;5082423;28;20042;-62
2023/06/07 08:23:05;;;;;;;8.65;2.90;;;16.10;99.90;;;;;;5062133;28;20047;-62
2023/06/07 08:25:31;;;;;;;10.45;3.45;;;16.30;99.90;;;;;;5063594;28;20542;-62
2023/06/07 08:27:57;;;;;;;10.30;3.65;;;16.50;99.90;;;;;;5078988;28;20044;-62
2023/06/07 08:30:23;;;;;;;8.07;3.25;;;16.60;99.90;;;;;;5048043;28;20040;-61
2023/06/07 08:32:50;;;;;;;11.13;3.60;;;16.60;99.90;;;;;;5064535;28;20640;-62
2023/06/07 08:35:16;;;;;;;14.13;4.00;;;16.40;99.90;;;;;;5085060;28;20363;-62
2023/06/07 08:37:42;;;;;;;10.88;3.60;;;16.30;99.90;;;;;;5071462;28;20028;-62
2023/06/07 08:40:11;;;;;;;13.23;7.38;;;16.20;99.90;;;;;;5099760;28;20131;-63
2023/06/07 08:42:38;;;;;;;9.95;5.15;;;16.30;99.90;;;;;;5061179;28;20062;-63
2023/06/07 08:45:05;;;;;;;12.13;3.67;;;16.40;99.90;;;;;;5083713;28;20407;-61
2023/06/07 08:47:33;;;;;;;15.63;4.20;;;16.40;99.90;;;;;;5107254;28;20078;-60
2023/06/07 08:50:00;;;;;;;11.13;4.20;;;16.30;99.90;;;;;;5091679;28;20048;-61
2023/06/07 08:52:26;;;;;;;14.90;4.07;;;16.50;99.90;;;;;;5082366;28;20052;-59
2023/06/07 08:54:58;;;;;;;12.48;3.13;;;16.50;99.90;;;;;;5081976;28;20029;-61
2023/06/07 08:57:27;;;;;;;10.63;4.07;;;16.50;99.90;;;;;;5066334;28;20076;-61
2023/06/07 08:59:53;;;;;;;12.02;3.22;;;16.60;99.90;;;;;;5091954;28;20546;-61
2023/06/07 09:02:24;;;;;;;8.80;3.42;;;16.70;99.90;;;;;;5087890;28;20040;-61
2023/06/07 09:04:51;;;;;;;11.77;3.90;;;17.00;99.90;;;;;;5066024;28;20452;-61
2023/06/07 09:07:17;;;;;;;10.50;3.75;;;17.20;99.90;;;;;;5084925;28;20047;-62
2023/06/07 09:09:43;;;;;;;9.23;3.38;;;17.20;99.90;;;;;;5095335;28;20032;-60
2023/06/07 09:12:12;;;;;;;12.77;4.15;;;17.20;99.90;;;;;;5058187;28;20040;-61
2023/06/07 09:14:39;;;;;;;10.88;3.55;;;17.10;99.90;;;;;;5063487;28;20054;-62
2023/06/07 09:17:05;;;;;;;13.07;4.85;;;17.20;99.90;;;;;;5099767;28;20042;-60
2023/06/07 09:19:41;;;;;;;12.30;4.47;;;17.50;99.90;;;;;;5090243;28;20036;-61
2023/06/07 09:22:09;;;;;;;12.13;4.13;;;17.60;99.90;;;;;;5060873;28;20488;-63
2023/06/07 09:24:36;;;;;;;9.70;4.32;;;17.60;99.90;;;;;;5074172;28;20146;-61
2023/06/07 09:27:03;;;;;;;14.68;4.70;;;17.50;99.90;;;;;;5092727;28;20501;-63
2023/06/07 09:29:37;;;;;;;10.40;4.35;;;17.60;99.90;;;;;;5077677;28;20550;-64
2023/06/07 09:32:21;;;;;;;13.63;5.53;;;17.80;99.90;;;;;;5060437;28;20040;-64
2023/06/07 09:34:48;;;;;;;11.27;4.50;;;17.90;99.90;;;;;;5070286;28;20037;-60
2023/06/07 09:37:17;;;;;;;12.23;4.65;;;18.10;99.90;;;;;;5070582;28;20039;-60
2023/06/07 09:39:43;;;;;;;12.52;4.53;;;18.30;99.90;;;;;;5093994;28;20107;-61
2023/06/07 09:42:16;;;;;;;49.30;8.63;;;18.30;99.90;;;;;;5091986;28;20036;-63
2023/06/07 09:44:41;;;;;;;8.13;4.47;;;18.30;99.90;;;;;;5091966;28;20051;-59
2023/06/07 09:47:21;;;;;;;10.13;4.50;;;18.10;99.90;;;;;;5091337;28;20115;-61
2023/06/07 09:49:47;;;;;;;15.82;5.05;;;18.30;99.90;;;;;;5087153;28;20430;-63
2023/06/07 09:52:15;;;;;;;12.68;4.55;;;18.50;99.90;;;;;;5060875;28;20044;-61
2023/06/07 09:54:44;;;;;;;16.70;5.68;;;18.60;99.90;;;;;;5054078;28;20315;-62
2023/06/07 09:57:26;;;;;;;13.73;5.22;;;18.80;99.90;;;;;;5053933;28;20499;-62
2023/06/07 10:00:04;;;;;;;16.02;5.13;;;18.90;99.90;;;;;;5089282;28;20564;-61
2023/06/07 10:02:30;;;;;;;12.20;4.20;;;18.90;99.90;;;;;;5072210;28;20556;-60
2023/06/07 10:04:56;;;;;;;8.35;4.40;;;19.00;99.90;;;;;;5084881;28;20041;-62
2023/06/07 10:07:23;;;;;;;13.55;5.22;;;19.10;99.90;;;;;;5073784;28;20390;-61
2023/06/07 10:10:00;;;;;;;13.68;4.75;;;19.20;99.80;;;;;;5067244;28;20040;-61
2023/06/07 10:12:31;;;;;;;12.93;5.05;;;19.30;99.40;;;;;;5091495;28;20744;-59
2023/06/07 10:15:03;;;;;;;11.10;4.40;;;19.30;99.70;;;;;;5080163;28;20044;-61
2023/06/07 10:17:35;;;;;;;9.90;4.95;;;19.30;99.40;;;;;;5091564;28;20043;-61
2023/06/07 10:20:03;;;;;;;12.23;4.28;;;19.50;99.70;;;;;;5092510;28;20032;-62
2023/06/07 10:22:39;;;;;;;14.40;5.20;;;19.60;99.40;;;;;;5085222;28;20119;-61
2023/06/07 10:25:08;;;;;;;10.45;4.93;;;19.40;98.90;;;;;;5072395;28;20047;-60
2023/06/07 10:28:05;;;;;;;11.50;5.13;;;19.40;99.10;;;;;;5065618;28;20040;-61
2023/06/07 10:30:32;;;;;;;12.90;4.20;;;19.50;99.20;;;;;;5059291;28;20458;-61
2023/06/07 10:32:58;;;;;;;12.38;4.30;;;19.60;98.90;;;;;;5083714;28;20811;-61
2023/06/07 10:35:25;;;;;;;9.25;3.53;;;19.70;99.10;;;;;;5076143;28;20118;-61
2023/06/07 10:37:53;;;;;;;8.50;4.28;;;19.70;99.00;;;;;;5090161;28;20040;-61
2023/06/07 10:40:22;;;;;;;13.82;4.45;;;19.80;98.80;;;;;;5084641;28;20261;-60
2023/06/07 10:42:50;;;;;;;10.63;4.25;;;19.80;98.90;;;;;;5047103;28;20071;-60
2023/06/07 10:45:19;;;;;;;10.95;4.47;;;20.00;99.30;;;;;;5086330;28;20044;-59
2023/06/07 10:47:48;;;;;;;8.30;4.40;;;20.10;99.20;;;;;;5073867;28;20031;-60
2023/06/07 10:50:31;;;;;;;12.00;4.97;;;20.20;98.40;;;;;;5088748;28;20039;-61
2023/06/07 10:53:02;;;;;;;10.60;4.22;;;20.20;97.80;;;;;;5047087;28;20167;-61
2023/06/07 10:55:31;;;;;;;10.60;5.38;;;20.00;97.70;;;;;;5063957;28;20094;-61
2023/06/07 10:57:57;;;;;;;13.18;5.85;;;20.10;98.50;;;;;;5081806;28;20047;-61
2023/06/07 11:00:31;;;;;;;9.18;4.47;;;20.20;98.40;;;;;;5089993;28;20112;-61
2023/06/07 11:03:10;;;;;;;12.52;5.15;;;20.30;98.50;;;;;;5079637;28;20036;-59
2023/06/07 11:05:55;;;;;;;8.48;4.05;;;20.50;98.10;;;;;;5080370;28;20044;-61
2023/06/07 11:08:24;;;;;;;12.70;4.40;;;20.50;97.60;;;;;;5085718;28;20132;-61
2023/06/07 11:10:51;;;;;;;10.77;4.50;;;20.60;98.20;;;;;;5082345;28;20091;-61
2023/06/07 11:13:17;;;;;;;9.95;5.43;;;20.60;98.00;;;;;;5061209;28;20553;-61
2023/06/07 11:15:42;;;;;;;15.18;6.72;;;20.70;97.60;;;;;;5093441;28;20071;-60
2023/06/07 11:18:08;;;;;;;12.10;6.03;;;20.80;97.80;;;;;;5088261;28;20150;-62
2023/06/07 11:20:43;;;;;;;11.00;5.75;;;20.80;97.60;;;;;;5072202;28;20053;-61
2023/06/07 11:23:24;;;;;;;11.30;4.90;;;20.70;97.50;;;;;;5073978;28;20040;-61
2023/06/07 11:25:59;;;;;;;27.73;8.38;;;20.60;97.60;;;;;;5086124;28;20047;-61
2023/06/07 11:28:27;;;;;;;17.38;6.88;;;20.70;97.60;;;;;;5054122;28;20035;-62
2023/06/07 11:30:53;;;;;;;14.63;6.35;;;20.80;97.50;;;;;;5085257;28;20036;-61
2023/06/07 11:33:22;;;;;;;15.20;6.18;;;20.90;97.40;;;;;;5081099;28;20181;-61
2023/06/07 11:35:55;;;;;;;12.50;5.82;;;21.00;97.40;;;;;;5049506;28;20036;-62
2023/06/07 11:38:22;;;;;;;8.40;5.25;;;21.00;96.90;;;;;;5086440;28;20047;-61
2023/06/07 11:40:48;;;;;;;12.68;6.57;;;21.10;96.90;;;;;;5086464;28;20059;-61
2023/06/07 11:43:15;;;;;;;13.25;5.70;;;21.10;96.80;;;;;;5084404;28;20060;-60
2023/06/07 11:45:42;;;;;;;10.82;5.05;;;20.90;97.00;;;;;;5079247;28;20425;-59
2023/06/07 11:48:09;;;;;;;14.07;5.72;;;21.10;97.10;;;;;;5086776;28;20044;-61
2023/06/07 11:50:40;;;;;;;15.32;5.20;;;21.20;96.80;;;;;;5079632;28;20048;-60
2023/06/07 11:53:09;;;;;;;9.95;5.28;;;21.30;97.00;;;;;;5081303;28;20507;-61
2023/06/07 11:55:38;;;;;;;10.45;5.20;;;21.20;96.30;;;;;;5077727;28;20058;-61
2023/06/07 11:58:05;;;;;;;13.32;4.43;;;21.10;96.20;;;;;;5084502;28;20035;-61
2023/06/07 12:00:33;;;;;;;11.43;4.68;;;21.30;96.80;;;;;;5086537;28;20426;-60
2023/06/07 12:03:00;;;;;;;14.30;4.47;;;21.30;96.40;;;;;;5091567;28;20610;-62
2023/06/07 12:05:30;;;;;;;9.52;5.00;;;21.40;97.10;;;;;;5046102;28;20075;-60
2023/06/07 12:08:04;;;;;;;9.73;4.40;;;21.60;97.10;;;;;;5063949;28;20045;-60
2023/06/07 12:10:36;;;;;;;11.45;4.30;;;21.80;96.30;;;;;;5075023;28;20079;-61
2023/06/07 12:13:14;;;;;;;11.15;4.90;;;21.80;96.40;;;;;;5085896;28;20040;-60
2023/06/07 12:15:54;;;;;;;10.00;4.60;;;21.80;96.00;;;;;;5062028;28;20047;-61
2023/06/07 12:18:23;;;;;;;11.80;5.32;;;21.80;95.90;;;;;;5045172;28;20063;-61
2023/06/07 12:21:00;;;;;;;14.20;5.93;;;21.90;95.20;;;;;;5078004;28;20040;-60
2023/06/07 12:23:25;;;;;;;11.80;6.10;;;21.70;94.90;;;;;;5063371;28;20043;-61
2023/06/07 12:26:11;;;;;;;11.88;4.90;;;21.60;94.90;;;;;;5069588;28;20040;-61
2023/06/07 12:28:40;;;;;;;14.23;7.00;;;21.70;95.20;;;;;;5055879;28;20100;-61
2023/06/07 12:31:25;;;;;;;13.10;5.43;;;21.70;95.20;;;;;;5083425;28;20415;-61
2023/06/07 12:34:00;;;;;;;10.13;4.95;;;21.70;95.80;;;;;;5082896;28;20041;-61
2023/06/07 12:36:35;;;;;;;10.43;5.25;;;21.70;95.30;;;;;;5085088;28;20043;-61
2023/06/07 12:39:03;;;;;;;10.55;4.78;;;21.60;94.90;;;;;;5090570;28;20032;-61
2023/06/07 12:41:30;;;;;;;11.55;4.47;;;21.60;95.50;;;;;;5091789;28;20051;-61
2023/06/07 12:44:08;;;;;;;13.38;5.20;;;21.70;96.10;;;;;;5053660;28;20387;-60